Time;durP1;ratioP1;P1;durP2;ratioP2;P2;SDS_P1;SDS_P2;PMS_P1;PMS_P2;Temp;Humidity;BMP_temperature;BMP_pressure;BME280_temperature;BME280_humidity;BME280_pressure;Samples;Min_cycle;Max_cycle;Signal;HPM_P1;HPM_P2
2024/04/16 00:01:17;;;;;;;12.20;2.13;;;;;;;4.82;100.00;68928.16;5518509;26;20077;-49
2024/04/16 00:03:45;;;;;;;13.57;3.05;;;;;;;4.84;100.00;68930.50;5519169;26;20008;-51
2024/04/16 00:06:16;;;;;;;15.80;1.90;;;;;;;4.80;100.00;68925.25;5517145;26;20854;-50
2024/04/16 00:08:48;;;;;;;12.88;2.10;;;;;;;4.82;100.00;68925.00;5523932;26;20016;-52
2024/04/16 00:11:18;;;;;;;10.30;1.63;;;;;;;4.82;100.00;68925.56;5521772;26;20013;-50
2024/04/16 00:13:49;;;;;;;12.38;2.08;;;;;;;4.85;100.00;68926.50;5519506;26;19989;-49
2024/04/16 00:16:17;;;;;;;11.27;2.20;;;;;;;4.86;100.00;68930.22;5518757;26;20037;-49
2024/04/16 00:18:48;;;;;;;12.65;2.25;;;;;;;4.93;100.00;68939.78;5519100;26;20009;-52
2024/04/16 00:21:16;;;;;;;16.58;2.50;;;;;;;4.93;100.00;68937.19;5517557;26;20011;-51
2024/04/16 00:23:49;;;;;;;16.00;3.00;;;;;;;4.94;100.00;68938.38;5518854;26;20021;-49
2024/04/16 00:26:16;;;;;;;14.13;2.15;;;;;;;5.00;100.00;68945.31;5520866;26;20388;-50
2024/04/16 00:28:47;;;;;;;11.27;1.95;;;;;;;5.05;100.00;68951.72;5522957;26;20013;-49
2024/04/16 00:31:14;;;;;;;9.48;2.17;;;;;;;5.06;100.00;68954.91;5522414;26;20041;-50
2024/04/16 00:33:45;;;;;;;14.38;2.10;;;;;;;5.10;100.00;68958.94;5522946;26;20348;-51
2024/04/16 00:36:12;;;;;;;11.05;2.25;;;;;;;5.09;100.00;68955.78;5490918;26;20005;-49
2024/04/16 00:38:43;;;;;;;16.98;2.25;;;;;;;5.16;100.00;68963.34;5523104;26;20005;-51
2024/04/16 00:41:13;;;;;;;15.63;2.22;;;;;;;5.18;100.00;68965.66;5523121;26;19997;-50
2024/04/16 00:43:43;;;;;;;13.82;1.80;;;;;;;5.18;100.00;68971.44;5522700;26;20008;-49
2024/04/16 00:46:13;;;;;;;10.32;1.95;;;;;;;5.20;100.00;68973.75;5518405;26;20149;-50
2024/04/16 00:48:43;;;;;;;12.63;2.35;;;;;;;5.28;100.00;68974.13;5520441;26;21159;-49
2024/04/16 00:51:11;;;;;;;5.45;1.75;;;;;;;5.30;100.00;68974.44;5520479;26;20211;-53
2024/04/16 00:53:42;;;;;;;10.85;1.80;;;;;;;5.34;100.00;68984.25;5518770;26;20004;-54
2024/04/16 00:56:13;;;;;;;11.85;1.55;;;;;;;5.37;100.00;68987.16;5518543;25;19997;-51
2024/04/16 00:58:45;;;;;;;15.65;1.52;;;;;;;5.39;100.00;68986.91;5518898;26;20066;-50
2024/04/16 01:01:13;;;;;;;7.40;1.70;;;;;;;5.39;100.00;68990.06;5518661;26;19994;-50
2024/04/16 01:03:44;;;;;;;14.07;2.20;;;;;;;5.40;100.00;68991.22;5518641;26;19994;-51
2024/04/16 01:06:12;;;;;;;13.80;2.35;;;;;;;5.42;100.00;68992.97;5516085;26;20005;-49
2024/04/16 01:08:43;;;;;;;12.95;2.20;;;;;;;5.42;100.00;68995.56;5486261;26;20441;-51
2024/04/16 01:11:22;;;;;;;9.50;2.38;;;;;;;5.53;100.00;69003.16;5521914;26;20069;-50
2024/04/16 01:13:52;;;;;;;10.73;1.90;;;;;;;5.56;100.00;69008.66;5518193;26;20002;-50
2024/04/16 01:16:20;;;;;;;6.53;1.38;;;;;;;5.56;100.00;69009.25;5517834;26;19997;-49
2024/04/16 01:18:50;;;;;;;10.52;1.60;;;;;;;5.53;100.00;69003.16;5516122;26;20033;-50
2024/04/16 01:21:19;;;;;;;7.13;1.70;;;;;;;5.52;100.00;69004.59;5516064;26;20005;-50
2024/04/16 01:23:52;;;;;;;8.50;1.40;;;;;;;5.51;100.00;69003.44;5518053;26;20459;-51
2024/04/16 01:26:19;;;;;;;6.10;1.63;;;;;;;5.50;100.00;69001.69;5518193;25;20008;-48
2024/04/16 01:28:50;;;;;;;8.15;1.55;;;;;;;5.53;100.00;69005.19;5520005;26;20324;-50
2024/04/16 01:31:17;;;;;;;4.85;1.08;;;;;;;5.47;100.00;69001.38;5522222;26;20034;-52
2024/04/16 01:33:48;;;;;;;8.38;1.42;;;;;;;5.44;100.00;68995.31;5521485;25;20029;-48
2024/04/16 01:36:15;;;;;;;7.60;1.52;;;;;;;5.41;100.00;68995.00;5515552;26;20008;-52
2024/04/16 01:38:48;;;;;;;6.63;1.73;;;;;;;5.44;100.00;68997.91;5519895;25;20009;-48
2024/04/16 01:41:18;;;;;;;10.68;2.08;;;;;;;5.46;100.00;69000.22;5522479;26;19993;-49
2024/04/16 01:43:48;;;;;;;9.63;1.70;;;;;;;5.48;100.00;68999.38;5491801;26;20013;-52
2024/04/16 01:46:16;;;;;;;10.20;1.92;;;;;;;5.50;100.00;69001.69;5488793;26;19993;-51
2024/04/16 01:48:49;;;;;;;7.78;1.40;;;;;;;5.49;100.00;69000.53;5521823;26;20012;-52
2024/04/16 01:51:19;;;;;;;8.63;1.48;;;;;;;5.45;100.00;68996.47;5519020;26;19998;-49
2024/04/16 01:53:49;;;;;;;6.78;1.80;;;;;;;5.46;100.00;68997.63;5521152;26;19998;-50
2024/04/16 01:56:20;;;;;;;8.20;1.50;;;;;;;5.48;100.00;69002.53;5520986;26;20043;-49
2024/04/16 01:58:50;;;;;;;7.53;1.50;;;;;;;5.48;100.00;68999.38;5524956;26;19997;-50
2024/04/16 02:01:18;;;;;;;7.07;1.52;;;;;;;5.53;100.00;69005.75;5525473;26;20004;-50
2024/04/16 02:03:48;;;;;;;6.97;1.15;;;;;;;5.53;100.00;69010.94;5524900;26;20073;-50
2024/04/16 02:06:16;;;;;;;7.40;1.33;;;;;;;5.51;100.00;69003.44;5525484;26;19997;-50
2024/04/16 02:08:46;;;;;;;6.85;1.58;;;;;;;5.50;100.00;69002.28;5522271;26;20008;-51
2024/04/16 02:11:15;;;;;;;7.63;1.60;;;;;;;5.48;100.00;69001.94;5521203;26;20048;-51
2024/04/16 02:13:47;;;;;;;10.07;2.22;;;;;;;5.46;100.00;68997.63;5524972;26;20038;-49
2024/04/16 02:16:16;;;;;;;8.63;1.95;;;;;;;5.44;100.00;68997.91;5525278;26;19994;-52
2024/04/16 02:18:46;;;;;;;6.05;1.23;;;;;;;5.37;100.00;68987.75;5525672;26;20060;-51
2024/04/16 02:21:14;;;;;;;6.15;1.40;;;;;;;5.37;100.00;68992.34;5520159;26;19997;-50
2024/04/16 02:23:46;;;;;;;9.85;1.60;;;;;;;5.35;100.00;68987.44;5520553;25;20016;-50
2024/04/16 02:26:14;;;;;;;7.93;1.47;;;;;;;5.31;100.00;68978.19;5520875;26;20004;-51
2024/04/16 02:28:47;;;;;;;4.65;1.40;;;;;;;5.30;100.00;68979.03;5520311;26;20013;-49
2024/04/16 02:31:15;;;;;;;7.18;1.60;;;;;;;5.25;100.00;68976.41;5520627;26;20008;-51
2024/04/16 02:33:45;;;;;;;7.15;1.42;;;;;;;5.25;100.00;68976.41;5522744;26;20001;-46
2024/04/16 02:36:13;;;;;;;7.07;1.40;;;;;;;5.27;100.00;68975.56;5525035;26;20314;-47
2024/04/16 02:38:43;;;;;;;8.77;1.52;;;;;;;5.25;100.00;68974.38;5491438;26;19993;-49
2024/04/16 02:41:11;;;;;;;8.43;1.70;;;;;;;5.16;100.00;68963.91;5524752;26;20004;-46
2024/04/16 02:43:41;;;;;;;2.95;1.20;;;;;;;5.10;100.00;68956.97;5524801;26;20009;-48
2024/04/16 02:46:11;;;;;;;6.20;1.27;;;;;;;5.04;100.00;68949.97;5491838;26;20033;-49
2024/04/16 02:48:42;;;;;;;4.45;0.77;;;;;;;5.03;100.00;68946.81;5524443;26;20069;-51
2024/04/16 02:51:13;;;;;;;2.67;0.80;;;;;;;4.94;100.00;68935.78;5524347;26;20416;-49
2024/04/16 02:53:44;;;;;;;1.13;0.55;;;;;;;4.86;100.00;68930.22;5523812;26;19997;-46
2024/04/16 02:56:12;;;;;;;1.67;0.52;;;;;;;4.79;100.00;68922.09;5524639;26;20401;-48
2024/04/16 02:58:47;;;;;;;4.20;0.52;;;;;;;4.77;100.00;68922.34;5524244;26;20016;-46
2024/04/16 03:01:17;;;;;;;;;;;;;;;4.68;100.00;68909.31;5525231;26;20356;-47
2024/04/16 03:03:48;;;;;;;2.30;0.45;;;;;;;4.63;100.00;68904.09;5524421;25;19930;-47
2024/04/16 03:06:15;;;;;;;0.95;0.30;;;;;;;4.63;100.00;68908.69;5522283;26;19998;-46
2024/04/16 03:08:46;;;;;;;1.05;0.30;;;;;;;4.64;100.00;68902.09;5519672;26;20009;-45
2024/04/16 03:11:14;;;;;;;0.45;0.30;;;;;;;4.56;100.00;68896.53;5522117;26;20005;-50
2024/04/16 03:13:44;;;;;;;2.67;0.93;;;;;;;4.54;100.00;68893.63;5523689;26;20001;-49
2024/04/16 03:16:12;;;;;;;1.73;0.40;;;;;;;4.60;100.00;68900.59;5524294;25;20005;-50
2024/04/16 03:18:47;;;;;;;2.72;0.45;;;;;;;4.54;100.00;68894.22;5523305;26;20353;-46
2024/04/16 03:21:15;;;;;;;1.23;0.40;;;;;;;4.59;100.00;68899.44;5521526;26;20001;-49
2024/04/16 03:23:45;;;;;;;1.65;0.45;;;;;;;4.55;100.00;68895.38;5519629;26;20412;-49
2024/04/16 03:26:13;;;;;;;3.38;0.50;;;;;;;4.49;100.00;68891.00;5519077;26;19994;-47
2024/04/16 03:28:43;;;;;;;1.65;0.45;;;;;;;4.43;100.00;68881.44;5523937;26;19997;-47
2024/04/16 03:31:11;;;;;;;1.48;0.50;;;;;;;4.38;100.00;68876.22;5523884;26;19993;-50
2024/04/16 03:33:44;;;;;;;2.20;0.63;;;;;;;4.36;100.00;68868.13;5523331;26;20457;-49
2024/04/16 03:36:12;;;;;;;0.63;0.40;;;;;;;4.37;100.00;68872.47;5523628;25;20057;-51
2024/04/16 03:38:42;;;;;;;2.38;0.50;;;;;;;4.35;100.00;68872.13;5523340;26;20009;-46
2024/04/16 03:41:13;;;;;;;1.73;0.50;;;;;;;4.34;100.00;68871.00;5523602;26;19993;-50
2024/04/16 03:43:43;;;;;;;2.10;0.40;;;;;;;4.24;100.00;68857.38;5523400;26;20025;-47
2024/04/16 03:46:11;;;;;;;1.30;0.40;;;;;;;4.19;100.00;68857.31;5523806;26;20401;-47
2024/04/16 03:48:44;;;;;;;2.17;0.50;;;;;;;4.21;100.00;68856.47;5523776;26;20063;-46
2024/04/16 03:51:12;;;;;;;2.05;0.70;;;;;;;4.21;100.00;68857.06;5523756;26;20519;-46
2024/04/16 03:53:42;;;;;;;2.17;0.60;;;;;;;4.25;100.00;68860.53;5523145;26;20049;-47
2024/04/16 03:56:10;;;;;;;1.67;0.60;;;;;;;4.29;100.00;68867.78;5491093;26;20061;-48
2024/04/16 03:58:53;;;;;;;2.92;0.80;;;;;;;4.31;100.00;68868.09;5523526;26;20009;-50
2024/04/16 04:01:21;;;;;;;2.65;0.70;;;;;;;4.31;100.00;68867.50;5523742;26;20005;-47
2024/04/16 04:03:54;;;;;;;3.35;0.80;;;;;;;4.30;100.00;68868.94;5523481;26;20020;-46
2024/04/16 04:06:22;;;;;;;2.33;0.80;;;;;;;4.33;100.00;68870.41;5489551;26;20013;-48
2024/04/16 04:08:52;;;;;;;2.90;0.60;;;;;;;4.41;100.00;68879.13;5523598;25;20080;-47
2024/04/16 04:11:20;;;;;;;3.92;0.80;;;;;;;4.40;100.00;68877.94;5523500;26;19998;-46
2024/04/16 04:13:51;;;;;;;4.32;1.00;;;;;;;4.42;100.00;68880.28;5523238;26;20073;-46
2024/04/16 04:16:18;;;;;;;2.17;0.65;;;;;;;4.43;100.00;68880.84;5523175;26;20009;-46
2024/04/16 04:18:51;;;;;;;3.22;0.90;;;;;;;4.43;100.00;68884.03;5489720;26;20007;-47
2024/04/16 04:21:22;;;;;;;3.30;0.80;;;;;;;4.42;100.00;68879.69;5516599;25;19998;-50
2024/04/16 04:23:52;;;;;;;3.88;1.17;;;;;;;4.43;100.00;68881.44;5518719;26;20001;-47
2024/04/16 04:26:20;;;;;;;2.63;0.93;;;;;;;4.43;100.00;68878.88;5522234;26;20341;-50
2024/04/16 04:28:55;;;;;;;3.15;0.90;;;;;;;4.42;100.00;68879.69;5523512;25;20070;-51
2024/04/16 04:31:22;;;;;;;5.05;1.27;;;;;;;4.43;100.00;68884.03;5489893;26;20007;-52
2024/04/16 04:33:53;;;;;;;4.47;1.60;;;;;;;4.44;100.00;68884.59;5519014;26;19993;-50
2024/04/16 04:36:23;;;;;;;2.88;1.08;;;;;;;4.44;100.00;68885.19;5518183;26;20396;-49
2024/04/16 04:38:53;;;;;;;5.18;1.45;;;;;;;4.47;100.00;68886.09;5523275;26;20034;-49
2024/04/16 04:41:21;;;;;;;4.85;1.23;;;;;;;4.47;100.00;68888.69;5523019;26;20043;-49
2024/04/16 04:43:55;;;;;;;5.88;1.65;;;;;;;4.46;100.00;68882.34;5518839;26;19999;-50
2024/04/16 04:46:22;;;;;;;7.32;1.30;;;;;;;4.50;100.00;68888.97;5518422;26;19998;-48
2024/04/16 04:48:53;;;;;;;2.45;1.20;;;;;;;4.48;100.00;68887.25;5518888;26;19997;-49
2024/04/16 04:51:23;;;;;;;7.30;1.52;;;;;;;4.51;100.00;68890.75;5483919;26;19997;-48
2024/04/16 04:53:53;;;;;;;5.35;1.50;;;;;;;4.49;100.00;68890.41;5522211;26;20017;-49
2024/04/16 04:56:22;;;;;;;6.65;1.67;;;;;;;4.55;100.00;68897.38;5518305;26;20050;-49
2024/04/16 04:58:52;;;;;;;7.80;1.52;;;;;;;4.60;100.00;68900.03;5519497;26;20008;-49
2024/04/16 05:01:20;;;;;;;4.50;1.60;;;;;;;4.60;100.00;68903.19;5522613;26;20029;-49
2024/04/16 05:03:50;;;;;;;8.60;2.28;;;;;;;4.56;100.00;68895.97;5521770;25;20038;-48
2024/04/16 05:06:18;;;;;;;8.00;2.17;;;;;;;4.56;100.00;68899.13;5521828;26;20069;-51
2024/04/16 05:08:51;;;;;;;5.40;2.25;;;;;;;4.57;100.00;68900.28;5521802;26;20073;-51
2024/04/16 05:11:22;;;;;;;8.52;2.75;;;;;;;4.61;100.00;68906.34;5517926;26;20065;-52
2024/04/16 05:13:52;;;;;;;9.38;2.63;;;;;;;4.64;100.00;68902.09;5519411;26;19997;-47
2024/04/16 05:16:20;;;;;;;8.00;2.42;;;;;;;4.66;100.00;68912.16;5523149;26;20008;-47
2024/04/16 05:18:51;;;;;;;8.10;2.58;;;;;;;4.69;100.00;68910.47;5524974;26;20004;-48
2024/04/16 05:21:19;;;;;;;6.93;2.30;;;;;;;4.71;100.00;68912.81;5518510;26;20425;-48
2024/04/16 05:23:53;;;;;;;7.35;1.95;;;;;;;4.71;100.00;68915.38;5522889;26;20018;-50
2024/04/16 05:26:22;;;;;;;10.23;1.88;;;;;;;4.78;100.00;68920.34;5525566;26;20001;-48
2024/04/16 05:28:53;;;;;;;5.47;1.55;;;;;;;4.79;100.00;68918.94;5525253;26;20473;-51
2024/04/16 05:31:20;;;;;;;7.03;1.60;;;;;;;4.79;100.00;68922.09;5525599;26;20329;-52
2024/04/16 05:33:55;;;;;;;4.38;1.10;;;;;;;4.71;100.00;68913.38;5525306;26;20004;-47
2024/04/16 05:36:23;;;;;;;3.00;0.90;;;;;;;4.69;100.00;68907.88;5525629;25;20012;-49
2024/04/16 05:38:56;;;;;;;4.60;0.80;;;;;;;4.56;100.00;68896.53;5525525;26;20004;-47
2024/04/16 05:41:24;;;;;;;3.58;0.90;;;;;;;4.56;100.00;68896.53;5525589;26;20509;-48
2024/04/16 05:43:55;;;;;;;1.65;0.80;;;;;;;4.60;100.00;68902.63;5521363;26;20011;-47
2024/04/16 05:46:23;;;;;;;4.68;0.98;;;;;;;4.63;100.00;68900.94;5521207;26;20449;-48
2024/04/16 05:48:56;;;;;;;4.32;1.30;;;;;;;4.61;100.00;68901.19;5525541;26;20393;-48
2024/04/16 05:51:24;;;;;;;3.17;1.10;;;;;;;4.62;100.00;68902.34;5525756;26;20006;-48
2024/04/16 05:54:00;;;;;;;3.00;1.20;;;;;;;4.62;100.00;68902.34;5525343;26;19998;-48
2024/04/16 05:56:28;;;;;;;4.00;0.80;;;;;;;4.64;100.00;68910.41;5525402;26;20012;-48
2024/04/16 05:59:00;;;;;;;2.80;0.90;;;;;;;4.69;100.00;68910.47;5525458;26;20400;-50
2024/04/16 06:01:27;;;;;;;4.13;0.90;;;;;;;4.67;100.00;68908.72;5525326;26;20488;-49
2024/04/16 06:03:59;;;;;;;2.50;1.00;;;;;;;4.71;100.00;68915.97;5525302;26;20376;-51
2024/04/16 06:06:28;;;;;;;;;;;;;;;4.71;100.00;68910.78;5521300;26;19997;-48
2024/04/16 06:09:03;;;;;;;3.78;1.15;;;;;;;4.82;100.00;68919.84;5520452;26;19923;-47
2024/04/16 06:11:31;;;;;;;4.95;1.15;;;;;;;4.81;100.00;68926.41;5525566;26;20009;-48
2024/04/16 06:14:02;;;;;;;2.97;1.30;;;;;;;4.89;100.00;68938.91;5525110;26;20439;-47
2024/04/16 06:16:30;;;;;;;2.70;1.08;;;;;;;4.94;100.00;68935.78;5525089;25;20009;-46
2024/04/16 06:19:01;;;;;;;5.32;1.52;;;;;;;4.96;100.00;68940.69;5525094;26;20012;-49
2024/04/16 06:21:28;;;;;;;6.63;2.20;;;;;;;5.01;100.00;68944.47;5492798;26;19993;-48
2024/04/16 06:23:59;;;;;;;5.53;1.60;;;;;;;5.06;100.00;68949.72;5525223;26;20076;-47
2024/04/16 06:26:31;;;;;;;5.13;1.60;;;;;;;5.18;100.00;68961.06;5525815;26;20719;-47
2024/04/16 06:29:03;;;;;;;4.18;1.80;;;;;;;5.24;100.00;68973.22;5523613;26;19994;-47
2024/04/16 06:31:31;;;;;;;7.47;1.85;;;;;;;5.27;100.00;68976.13;5521463;26;20004;-47
2024/04/16 06:34:02;;;;;;;5.35;2.00;;;;;;;5.34;100.00;68986.25;5520551;25;20731;-48
2024/04/16 06:36:30;;;;;;;4.85;1.85;;;;;;;5.39;100.00;68989.50;5525137;26;20012;-47
2024/04/16 06:39:00;;;;;;;9.15;2.40;;;;;;;5.44;100.00;68994.72;5524998;26;20001;-47
2024/04/16 06:41:31;;;;;;;10.52;2.58;;;;;;;5.54;100.00;69009.50;5524988;25;19997;-49
2024/04/16 06:44:01;;;;;;;11.05;2.22;;;;;;;5.64;100.00;69014.81;5524537;26;20508;-47
2024/04/16 06:46:30;;;;;;;10.25;2.35;;;;;;;5.76;100.00;69031.91;5520363;26;20011;-48
2024/04/16 06:49:00;;;;;;;11.20;2.85;;;;;;;5.91;100.00;69046.19;5520868;26;20005;-51
2024/04/16 06:51:43;;;;;;;8.80;2.33;;;;;;;6.01;100.00;69062.44;5524557;26;20029;-48
2024/04/16 06:54:13;;;;;;;7.88;2.45;;;;;;;6.14;100.00;69071.22;5492272;26;19997;-50
2024/04/16 06:56:43;;;;;;;7.30;2.15;;;;;;;6.26;100.00;69087.78;5524386;25;19998;-49
2024/04/16 06:59:14;;;;;;;7.55;2.03;;;;;;;6.42;100.00;69105.78;5524565;26;20003;-51
2024/04/16 07:01:42;;;;;;;8.50;1.95;;;;;;;6.51;100.00;69115.69;5524678;26;19997;-52
2024/04/16 07:04:14;;;;;;;8.80;2.00;;;;;;;6.59;100.00;69128.16;5524422;26;20001;-52
2024/04/16 07:06:42;;;;;;;9.70;2.10;;;;;;;6.68;100.00;69132.28;5524327;26;20010;-46
2024/04/16 07:09:12;;;;;;;6.22;1.98;;;;;;;6.87;100.00;69159.59;5524006;26;20072;-48
2024/04/16 07:11:43;;;;;;;8.82;1.90;;;;;;;7.01;100.00;69169.50;5524173;25;20001;-47
2024/04/16 07:14:14;;;;;;;8.70;2.25;;;;;;;7.08;100.00;69177.66;5524166;26;20073;-47
2024/04/16 07:16:45;;;;;;;8.60;2.15;;;;;;;7.11;100.00;69183.75;5523563;26;20005;-46
2024/04/16 07:19:12;;;;;;;9.15;2.63;;;;;;;7.09;100.00;69176.81;5521289;26;20329;-47
2024/04/16 07:21:43;;;;;;;11.48;2.60;;;;;;;7.12;100.00;69187.50;5516673;26;20452;-47
2024/04/16 07:24:11;;;;;;;10.43;2.30;;;;;;;7.17;100.00;69190.16;5523283;26;19993;-48
2024/04/16 07:26:41;;;;;;;9.00;2.20;;;;;;;7.27;100.00;69202.38;5523554;26;20013;-49
2024/04/16 07:29:09;;;;;;;13.73;3.03;;;;;;;7.31;100.00;69206.47;5524267;26;19998;-48
2024/04/16 07:31:44;;;;;;;10.32;2.10;;;;;;;7.38;100.00;69208.84;5524348;26;19998;-47
2024/04/16 07:34:17;;;;;;;12.38;2.67;;;;;;;7.45;100.00;69224.75;5523857;26;19997;-50
2024/04/16 07:36:47;;;;;;;13.02;2.63;;;;;;;7.43;100.00;69220.44;5523360;25;20002;-47
2024/04/16 07:39:16;;;;;;;16.23;3.08;;;;;;;7.40;100.00;69214.34;5524559;26;19997;-47
2024/04/16 07:41:50;;;;;;;7.15;2.70;;;;;;;7.35;100.00;69210.53;5523848;26;20342;-49
2024/04/16 07:44:22;;;;;;;13.30;2.97;;;;;;;7.34;100.00;69206.78;5523856;26;20001;-47
2024/04/16 07:46:55;;;;;;;11.25;2.42;;;;;;;7.29;100.00;69206.72;5523904;25;20016;-48
2024/04/16 07:49:27;;;;;;;9.13;2.38;;;;;;;7.26;100.00;69201.22;5523824;26;19997;-46
2024/04/16 07:51:55;;;;;;;7.18;2.00;;;;;;;7.32;100.00;69201.84;5523721;26;19993;-48
2024/04/16 07:54:27;;;;;;;11.70;2.72;;;;;;;7.39;100.00;69215.16;5523666;26;20457;-50
2024/04/16 07:56:55;;;;;;;9.88;1.92;;;;;;;7.41;100.00;69217.50;5523791;26;20013;-49
2024/04/16 07:59:29;;;;;;;11.70;2.17;;;;;;;7.42;100.00;69218.69;5523677;26;20433;-50
2024/04/16 08:01:59;;;;;;;12.00;2.13;;;;;;;7.49;100.00;69226.25;5523722;26;19998;-48
2024/04/16 08:04:30;;;;;;;9.23;1.60;;;;;;;7.59;100.00;69238.47;5521260;26;20005;-49
2024/04/16 08:06:58;;;;;;;9.68;1.98;;;;;;;7.71;100.00;69246.66;5516774;26;20075;-49
2024/04/16 08:09:31;;;;;;;11.45;2.38;;;;;;;7.88;100.00;69270.50;5522589;26;20002;-49
2024/04/16 08:12:05;;;;;;;8.40;1.83;;;;;;;8.01;100.00;69285.06;5519555;26;20953;-49
2024/04/16 08:14:32;;;;;;;9.13;1.70;;;;;;;8.06;100.00;69290.88;5520962;26;20023;-46
2024/04/16 08:17:06;;;;;;;9.27;2.08;;;;;;;8.07;100.00;69290.03;5491326;26;20451;-50
2024/04/16 08:19:33;;;;;;;9.55;1.92;;;;;;;8.05;100.00;69287.69;5523879;26;20440;-46
2024/04/16 08:22:04;;;;;;;9.82;1.80;;;;;;;8.18;100.00;69304.28;5523324;26;20068;-48
2024/04/16 08:24:38;;;;;;;10.48;2.25;;;;;;;8.29;100.00;69317.09;5523134;25;19997;-47
2024/04/16 08:27:08;;;;;;;7.90;2.13;;;;;;;8.30;100.00;69315.66;5523070;26;20001;-46
2024/04/16 08:29:36;;;;;;;8.70;2.00;;;;;;;8.48;100.00;69340.69;5523440;26;19998;-50
2024/04/16 08:32:09;;;;;;;8.50;2.25;;;;;;;8.56;100.00;69347.41;5523649;26;20076;-51
2024/04/16 08:34:38;;;;;;;9.15;1.60;;;;;;;8.53;100.00;69344.50;5523162;26;20009;-47
2024/04/16 08:37:09;;;;;;;11.38;1.85;;;;;;;8.56;100.00;69348.00;5522867;26;20436;-50
2024/04/16 08:39:37;;;;;;;7.35;1.83;;;;;;;8.65;100.00;69354.72;5523100;26;20421;-48
2024/04/16 08:42:10;;;;;;;5.45;1.50;;;;;;;8.68;100.00;69363.41;5523500;26;20065;-47
2024/04/16 08:44:39;;;;;;;7.53;1.50;;;;;;;8.79;100.00;69373.63;5523613;25;20329;-48
2024/04/16 08:47:14;;;;;;;4.65;1.50;;;;;;;8.79;100.00;69371.03;5523226;26;20001;-47
2024/04/16 08:49:44;;;;;;;5.53;1.30;;;;;;;8.78;100.00;69373.06;5523032;25;19993;-46
2024/04/16 08:52:16;;;;;;;3.97;1.08;;;;;;;8.83;100.00;69378.28;5522409;26;19998;-48
2024/04/16 08:54:45;;;;;;;8.20;1.55;;;;;;;8.85;100.00;69380.03;5523037;26;20008;-47
2024/04/16 08:57:16;;;;;;;2.20;0.90;;;;;;;8.89;100.00;69380.09;5523026;26;20492;-45
2024/04/16 08:59:44;;;;;;;4.25;0.90;;;;;;;8.94;100.00;69388.53;5522825;26;20009;-46
2024/04/16 09:02:19;;;;;;;6.40;1.60;;;;;;;8.97;100.00;69394.03;5522949;26;20030;-46
2024/04/16 09:04:49;;;;;;;3.58;1.02;;;;;;;8.96;100.00;69390.25;5523011;25;20076;-46
2024/04/16 09:07:22;;;;;;;5.00;1.00;;;;;;;9.06;100.00;69403.94;5522691;25;20033;-48
2024/04/16 09:09:50;;;;;;;6.43;1.20;;;;;;;9.23;100.00;69423.16;5522493;26;20042;-50
2024/04/16 09:12:22;;;;;;;3.85;1.10;;;;;;;9.45;100.00;69450.84;5522570;26;20046;-48
2024/04/16 09:14:49;;;;;;;3.53;1.05;;;;;;;9.47;100.00;69450.56;5522800;26;20365;-51
2024/04/16 09:17:22;;;;;;;4.10;0.90;;;;;;;9.40;100.00;69439.81;5522688;26;20469;-49
2024/04/16 09:20:00;;;;;;;7.82;1.02;;;;;;;9.35;100.00;69436.59;5490148;26;20689;-50
2024/04/16 09:22:33;;;;;;;4.80;1.08;;;;;;;9.20;100.00;69417.06;5521825;26;20365;-47
2024/04/16 09:25:05;;;;;;;4.75;1.17;;;;;;;9.24;100.00;69424.34;5522888;26;20005;-47
2024/04/16 09:27:37;;;;;;;3.60;1.00;;;;;;;9.40;100.00;69443.00;5488083;26;19997;-46
2024/04/16 09:30:07;;;;;;;8.10;1.67;;;;;;;9.63;100.00;69471.84;5485629;26;20008;-47
2024/04/16 09:32:40;;;;;;;4.57;1.08;;;;;;;9.68;100.00;69471.28;5519920;26;20069;-46
2024/04/16 09:35:09;;;;;;;4.90;1.00;;;;;;;9.62;100.00;69464.88;5522480;26;20086;-50
2024/04/16 09:37:39;;;;;;;3.42;0.88;;;;;;;9.80;100.00;69488.50;5522478;26;20006;-50
2024/04/16 09:40:10;;;;;;;4.40;0.90;;;;;;;9.94;100.00;69506.84;5522679;26;20009;-49
2024/04/16 09:42:44;;;;;;;9.18;1.63;;;;;;;9.86;100.00;69496.91;5519489;26;20001;-47
2024/04/16 09:45:12;;;;;;;5.47;1.08;;;;;;;9.71;100.00;69478.00;5517275;26;20341;-48
2024/04/16 09:47:48;;;;;;;5.57;1.50;;;;;;;9.79;100.00;69486.75;5520901;25;20014;-47
2024/04/16 09:50:19;;;;;;;5.35;1.05;;;;;;;9.90;100.00;69499.00;5522012;26;20429;-46
2024/04/16 09:53:10;;;;;;;4.90;1.10;;;;;;;9.89;100.00;69498.41;5489524;26;20009;-47
2024/04/16 09:55:42;;;;;;;5.88;1.08;;;;;;;10.06;100.00;69517.06;5486092;26;19998;-46
2024/04/16 09:58:16;;;;;;;4.10;0.95;;;;;;;9.92;100.00;69503.91;5517127;26;20440;-47
2024/04/16 10:00:44;;;;;;;5.22;1.05;;;;;;;9.76;100.00;69483.81;5521718;26;20014;-48
2024/04/16 10:03:21;;;;;;;5.40;1.02;;;;;;;9.56;100.00;69460.50;5522203;26;19998;-48
2024/04/16 10:05:49;;;;;;;4.88;1.00;;;;;;;9.60;100.00;69465.16;5493050;26;20341;-47
2024/04/16 10:08:22;;;;;;;5.05;0.93;;;;;;;9.48;100.00;69451.75;5525288;26;20336;-47
2024/04/16 10:10:52;;;;;;;6.18;1.00;;;;;;;9.48;100.00;69446.53;5525122;25;19989;-46
2024/04/16 10:13:27;;;;;;;;;;;;;;;9.51;100.00;69454.66;5526111;26;20381;-48
2024/04/16 10:15:58;;;;;;;3.88;0.77;;;;;;;9.68;100.00;69471.28;5525302;26;20262;-47
2024/04/16 10:18:31;;;;;;;4.90;1.20;;;;;;;9.84;100.00;69491.97;5525347;25;20524;-49
2024/04/16 10:21:00;;;;;;;4.88;1.20;;;;;;;9.82;100.00;69488.19;5518872;25;20070;-50
2024/04/16 10:23:32;;;;;;;5.60;1.13;;;;;;;9.92;100.00;69496.09;5521620;25;20013;-52
2024/04/16 10:26:00;;;;;;;4.35;1.00;;;;;;;10.16;100.00;69528.75;5525324;26;20004;-51
2024/04/16 10:28:33;;;;;;;5.78;1.20;;;;;;;10.31;100.00;69546.22;5525379;25;20017;-48
2024/04/16 10:31:02;;;;;;;3.78;0.85;;;;;;;10.47;100.00;69561.75;5525056;26;19993;-46
2024/04/16 10:33:38;;;;;;;6.22;1.35;;;;;;;10.41;100.00;69556.75;5525078;25;20008;-45
2024/04/16 10:36:07;;;;;;;4.72;0.77;;;;;;;10.56;100.00;69574.25;5525257;26;19998;-46
2024/04/16 10:38:39;;;;;;;5.97;1.25;;;;;;;10.76;100.00;69597.03;5524980;26;20337;-46
2024/04/16 10:41:06;;;;;;;4.38;0.98;;;;;;;11.02;100.00;69623.03;5525391;26;20009;-46
2024/04/16 10:43:41;;;;;;;3.80;0.85;;;;;;;11.35;100.00;69660.41;5524737;26;20003;-47
2024/04/16 10:46:09;;;;;;;4.32;0.98;;;;;;;11.52;100.00;69677.03;5525249;25;20008;-45
2024/04/16 10:48:44;;;;;;;2.00;0.85;;;;;;;11.82;100.00;69714.72;5524781;26;20029;-45
2024/04/16 10:51:12;;;;;;;3.47;0.85;;;;;;;12.06;100.00;69738.97;5525132;26;20023;-46
2024/04/16 10:53:43;;;;;;;4.88;0.82;;;;;;;12.32;100.00;69774.03;5525123;26;20342;-48
2024/04/16 10:56:11;;;;;;;3.88;0.68;;;;;;;12.36;100.00;69778.09;5525466;25;19989;-47
2024/04/16 10:58:41;;;;;;;4.80;0.70;;;;;;;12.06;100.00;69744.22;5524879;26;20020;-46
2024/04/16 11:01:09;;;;;;;3.85;0.90;;;;;;;12.17;100.00;69756.47;5524998;25;20001;-47
2024/04/16 11:03:43;;;;;;;3.05;0.68;;;;;;;12.41;100.00;69783.38;5492213;26;20054;-46
2024/04/16 11:06:11;;;;;;;3.33;1.00;;;;;;;12.50;100.00;69789.25;5524911;26;20516;-46
2024/04/16 11:08:42;;;;;;;5.55;0.75;;;;;;;12.60;100.00;69802.97;5492101;26;20616;-49
2024/04/16 11:11:10;;;;;;;5.60;0.65;;;;;;;12.37;100.00;69779.28;5492095;26;20345;-48
2024/04/16 11:13:41;;;;;;;3.13;0.63;;;;;;;12.48;100.00;69786.31;5524435;26;19997;-49
2024/04/16 11:16:09;;;;;;;2.88;0.50;;;;;;;12.62;100.00;69807.91;5524273;26;20004;-46
2024/04/16 11:18:42;;;;;;;1.95;0.77;;;;;;;12.85;100.00;69834.22;5524247;26;20002;-47
2024/04/16 11:21:10;;;;;;;5.15;0.77;;;;;;;13.01;100.00;69849.72;5518666;26;20015;-50
2024/04/16 11:23:41;;;;;;;2.47;0.60;;;;;;;13.33;100.00;69882.78;5520080;26;20448;-48
2024/04/16 11:26:11;;;;;;;3.55;0.55;;;;;;;13.62;100.00;69916.13;5491178;26;20663;-48
2024/04/16 11:28:42;;;;;;;2.92;0.60;;;;;;;13.82;100.00;69938.94;5519139;26;20005;-50
2024/04/16 11:31:11;;;;;;;4.43;0.50;;;;;;;13.89;100.00;69946.53;5522255;25;19993;-46
2024/04/16 11:33:47;;;;;;;2.85;0.50;;;;;;;14.20;100.00;69986.91;5524357;26;20033;-46
2024/04/16 11:36:17;;;;;;;0.82;0.47;;;;;;;14.45;100.00;70010.34;5491581;26;20005;-44
2024/04/16 11:38:47;;;;;;;3.00;0.60;;;;;;;14.64;100.00;70032.03;5524326;26;20034;-50
2024/04/16 11:41:15;;;;;;;2.00;0.50;;;;;;;14.62;100.00;70029.66;5524265;26;20293;-48
2024/04/16 11:43:48;;;;;;;2.55;0.50;;;;;;;14.62;100.00;70034.31;5491512;26;20072;-48
2024/04/16 11:46:16;;;;;;;4.57;0.65;;;;;;;14.93;100.00;70064.22;5524303;26;19998;-47